sensor_id;sensor_type;location;lat;lon;timestamp;pressure;altitude;pressure_sealevel;temperature;humidity
68948;BME280;55996;49.546;7.400;2022-08-03T00:02:12;98713.41;;;19.59;72.39
68948;BME280;55996;49.546;7.400;2022-08-03T00:04:37;98714.16;;;19.61;72.21
68948;BME280;55996;49.546;7.400;2022-08-03T00:07:02;98712.75;;;19.68;71.33
68948;BME280;55996;49.546;7.400;2022-08-03T00:09:28;98704.81;;;19.56;71.84
68948;BME280;55996;49.546;7.400;2022-08-03T00:11:55;98703.72;;;19.58;71.86
68948;BME280;55996;49.546;7.400;2022-08-03T00:14:20;98713.28;;;19.61;71.64
68948;BME280;55996;49.546;7.400;2022-08-03T00:16:46;98715.00;;;19.49;71.66
68948;BME280;55996;49.546;7.400;2022-08-03T00:19:11;98710.31;;;19.40;71.99
68948;BME280;55996;49.546;7.400;2022-08-03T00:21:36;98713.72;;;19.42;72.52
68948;BME280;55996;49.546;7.400;2022-08-03T00:24:02;98704.19;;;19.39;72.68
68948;BME280;55996;49.546;7.400;2022-08-03T00:26:27;98697.41;;;19.35;72.66
68948;BME280;55996;49.546;7.400;2022-08-03T00:28:53;98712.44;;;19.34;72.24
68948;BME280;55996;49.546;7.400;2022-08-03T00:31:18;98706.28;;;19.21;72.93
68948;BME280;55996;49.546;7.400;2022-08-03T00:33:44;98708.34;;;18.90;74.84
68948;BME280;55996;49.546;7.400;2022-08-03T00:36:09;98708.06;;;18.95;75.05
68948;BME280;55996;49.546;7.400;2022-08-03T00:38:34;98710.41;;;19.12;74.54
68948;BME280;55996;49.546;7.400;2022-08-03T00:41:00;98702.88;;;19.06;74.81
68948;BME280;55996;49.546;7.400;2022-08-03T00:43:25;98697.09;;;18.86;75.31
68948;BME280;55996;49.546;7.400;2022-08-03T00:45:52;98696.25;;;18.86;75.24
68948;BME280;55996;49.546;7.400;2022-08-03T00:48:19;98700.00;;;18.96;76.00
68948;BME280;55996;49.546;7.400;2022-08-03T00:50:44;98697.28;;;18.98;75.25
68948;BME280;55996;49.546;7.400;2022-08-03T00:53:10;98692.28;;;18.93;75.03
68948;BME280;55996;49.546;7.400;2022-08-03T00:55:37;98695.47;;;18.98;74.91
68948;BME280;55996;49.546;7.400;2022-08-03T00:58:04;98696.53;;;18.96;75.39
68948;BME280;55996;49.546;7.400;2022-08-03T01:00:31;98698.72;;;18.89;76.14
68948;BME280;55996;49.546;7.400;2022-08-03T01:02:57;98700.72;;;18.85;75.80
68948;BME280;55996;49.546;7.400;2022-08-03T01:05:22;98698.63;;;18.91;75.56
68948;BME280;55996;49.546;7.400;2022-08-03T01:10:56;98698.66;;;18.76;76.75
68948;BME280;55996;49.546;7.400;2022-08-03T01:16:07;98708.22;;;18.79;76.95
68948;BME280;55996;49.546;7.400;2022-08-03T01:21:37;98700.06;;;18.82;76.38
68948;BME280;55996;49.546;7.400;2022-08-03T01:27:42;98705.25;;;18.83;76.53
68948;BME280;55996;49.546;7.400;2022-08-03T01:30:09;98700.47;;;18.76;75.22
68948;BME280;55996;49.546;7.400;2022-08-03T01:32:47;98698.97;;;18.71;75.71
68948;BME280;55996;49.546;7.400;2022-08-03T01:35:25;98697.88;;;18.61;75.74
68948;BME280;55996;49.546;7.400;2022-08-03T01:37:57;98698.00;;;18.60;76.60
68948;BME280;55996;49.546;7.400;2022-08-03T01:40:26;98690.66;;;18.50;77.68
68948;BME280;55996;49.546;7.400;2022-08-03T01:42:54;98690.75;;;18.49;78.41
68948;BME280;55996;49.546;7.400;2022-08-03T01:45:22;98684.38;;;18.38;78.82
68948;BME280;55996;49.546;7.400;2022-08-03T01:47:49;98688.31;;;18.46;78.74
68948;BME280;55996;49.546;7.400;2022-08-03T01:50:18;98686.50;;;18.46;78.08
68948;BME280;55996;49.546;7.400;2022-08-03T01:52:46;98677.63;;;18.47;78.61
68948;BME280;55996;49.546;7.400;2022-08-03T01:55:16;98684.25;;;18.40;78.16
68948;BME280;55996;49.546;7.400;2022-08-03T01:57:43;98668.66;;;18.22;79.06
68948;BME280;55996;49.546;7.400;2022-08-03T02:00:10;98670.41;;;18.22;79.40
68948;BME280;55996;49.546;7.400;2022-08-03T02:02:36;98663.63;;;18.18;79.60
68948;BME280;55996;49.546;7.400;2022-08-03T02:05:05;98686.50;;;18.19;79.47
68948;BME280;55996;49.546;7.400;2022-08-03T02:07:32;98655.16;;;18.13;79.09
68948;BME280;55996;49.546;7.400;2022-08-03T02:10:00;98675.94;;;18.19;79.47
68948;BME280;55996;49.546;7.400;2022-08-03T02:12:27;98675.41;;;17.99;80.29
68948;BME280;55996;49.546;7.400;2022-08-03T02:14:54;98671.81;;;18.00;80.43
68948;BME280;55996;49.546;7.400;2022-08-03T02:17:22;98671.22;;;18.10;80.80
68948;BME280;55996;49.546;7.400;2022-08-03T02:19:50;98664.97;;;18.11;80.11
68948;BME280;55996;49.546;7.400;2022-08-03T02:22:16;98651.97;;;18.08;80.24
68948;BME280;55996;49.546;7.400;2022-08-03T02:24:43;98667.88;;;18.20;80.31
68948;BME280;55996;49.546;7.400;2022-08-03T02:27:20;98665.72;;;18.27;78.98
68948;BME280;55996;49.546;7.400;2022-08-03T02:29:48;98655.06;;;18.14;79.12
68948;BME280;55996;49.546;7.400;2022-08-03T02:32:16;98668.34;;;18.27;78.85
68948;BME280;55996;49.546;7.400;2022-08-03T02:34:46;98661.75;;;18.20;79.25
68948;BME280;55996;49.546;7.400;2022-08-03T02:37:13;98669.53;;;18.09;79.76
68948;BME280;55996;49.546;7.400;2022-08-03T02:39:42;98659.34;;;18.02;80.18
68948;BME280;55996;49.546;7.400;2022-08-03T02:42:10;98664.06;;;17.97;80.55
68948;BME280;55996;49.546;7.400;2022-08-03T02:44:39;98666.63;;;17.99;80.86
68948;BME280;55996;49.546;7.400;2022-08-03T02:47:09;98662.00;;;17.88;79.83
68948;BME280;55996;49.546;7.400;2022-08-03T02:49:37;98660.69;;;17.81;81.11
68948;BME280;55996;49.546;7.400;2022-08-03T02:52:03;98663.16;;;17.69;83.18
68948;BME280;55996;49.546;7.400;2022-08-03T02:54:33;98659.09;;;17.64;83.93
68948;BME280;55996;49.546;7.400;2022-08-03T02:57:00;98663.38;;;17.66;83.42
68948;BME280;55996;49.546;7.400;2022-08-03T02:59:27;98661.44;;;17.68;82.79
68948;BME280;55996;49.546;7.400;2022-08-03T03:01:56;98663.38;;;17.66;83.33
68948;BME280;55996;49.546;7.400;2022-08-03T03:04:22;98660.63;;;17.68;83.06
68948;BME280;55996;49.546;7.400;2022-08-03T03:06:48;98634.75;;;17.58;81.63
68948;BME280;55996;49.546;7.400;2022-08-03T03:09:15;98651.47;;;17.59;82.81
68948;BME280;55996;49.546;7.400;2022-08-03T03:11:41;98665.63;;;17.58;84.01
68948;BME280;55996;49.546;7.400;2022-08-03T03:14:08;98667.16;;;17.48;84.76
68948;BME280;55996;49.546;7.400;2022-08-03T03:16:35;98662.44;;;17.53;83.97
68948;BME280;55996;49.546;7.400;2022-08-03T03:19:01;98668.00;;;17.48;84.52
68948;BME280;55996;49.546;7.400;2022-08-03T03:21:28;98664.50;;;17.48;84.34
68948;BME280;55996;49.546;7.400;2022-08-03T03:23:54;98666.56;;;17.42;83.64
68948;BME280;55996;49.546;7.400;2022-08-03T03:26:19;98664.59;;;17.46;84.39
68948;BME280;55996;49.546;7.400;2022-08-03T03:28:45;98657.97;;;17.39;85.15
68948;BME280;55996;49.546;7.400;2022-08-03T03:31:11;98660.72;;;17.37;84.49
68948;BME280;55996;49.546;7.400;2022-08-03T03:33:37;98651.84;;;17.24;85.68
68948;BME280;55996;49.546;7.400;2022-08-03T03:36:04;98664.50;;;17.33;85.67
68948;BME280;55996;49.546;7.400;2022-08-03T03:38:31;98665.81;;;17.26;85.30
68948;BME280;55996;49.546;7.400;2022-08-03T03:40:57;98660.06;;;17.34;84.82
68948;BME280;55996;49.546;7.400;2022-08-03T03:43:22;98661.66;;;17.36;84.86
68948;BME280;55996;49.546;7.400;2022-08-03T03:45:49;98664.78;;;17.43;84.48
68948;BME280;55996;49.546;7.400;2022-08-03T03:48:17;98667.03;;;17.35;84.96
68948;BME280;55996;49.546;7.400;2022-08-03T03:50:43;98670.72;;;17.32;84.32
68948;BME280;55996;49.546;7.400;2022-08-03T03:53:10;98670.94;;;17.29;84.64
68948;BME280;55996;49.546;7.400;2022-08-03T03:55:36;98644.97;;;17.07;85.31
68948;BME280;55996;49.546;7.400;2022-08-03T03:58:02;98662.22;;;17.13;85.40
68948;BME280;55996;49.546;7.400;2022-08-03T04:00:29;98671.28;;;17.08;86.97
68948;BME280;55996;49.546;7.400;2022-08-03T04:02:55;98664.78;;;17.14;87.54
68948;BME280;55996;49.546;7.400;2022-08-03T04:05:20;98659.84;;;17.22;86.27
68948;BME280;55996;49.546;7.400;2022-08-03T04:08:07;98664.59;;;17.17;86.06
68948;BME280;55996;49.546;7.400;2022-08-03T04:13:45;98665.63;;;17.15;86.39
68948;BME280;55996;49.546;7.400;2022-08-03T04:16:15;98662.59;;;17.21;86.32
68948;BME280;55996;49.546;7.400;2022-08-03T04:18:43;98659.97;;;17.21;85.40
68948;BME280;55996;49.546;7.400;2022-08-03T04:21:13;98660.13;;;17.18;85.93
68948;BME280;55996;49.546;7.400;2022-08-03T04:23:42;98665.88;;;17.10;86.78
68948;BME280;55996;49.546;7.400;2022-08-03T04:26:11;98671.56;;;17.18;87.12
68948;BME280;55996;49.546;7.400;2022-08-03T04:28:38;98669.59;;;17.22;86.16
68948;BME280;55996;49.546;7.400;2022-08-03T04:31:05;98667.78;;;17.22;86.11
68948;BME280;55996;49.546;7.400;2022-08-03T04:33:33;98665.72;;;17.13;85.90
68948;BME280;55996;49.546;7.400;2022-08-03T04:36:01;98670.13;;;17.13;86.60
68948;BME280;55996;49.546;7.400;2022-08-03T04:38:30;98667.50;;;17.13;87.37
68948;BME280;55996;49.546;7.400;2022-08-03T04:40:58;98681.00;;;17.22;87.86
68948;BME280;55996;49.546;7.400;2022-08-03T04:43:25;98671.38;;;17.36;86.82
68948;BME280;55996;49.546;7.400;2022-08-03T04:45:52;98677.72;;;17.33;86.98
68948;BME280;55996;49.546;7.400;2022-08-03T04:48:19;98677.91;;;17.45;86.91
68948;BME280;55996;49.546;7.400;2022-08-03T04:50:45;98686.88;;;17.56;86.43
68948;BME280;55996;49.546;7.400;2022-08-03T04:53:11;98684.91;;;17.60;86.12
68948;BME280;55996;49.546;7.400;2022-08-03T04:55:37;98678.25;;;17.67;85.99
68948;BME280;55996;49.546;7.400;2022-08-03T04:58:04;98671.47;;;17.63;85.74
68948;BME280;55996;49.546;7.400;2022-08-03T05:00:31;98688.66;;;17.70;85.18
68948;BME280;55996;49.546;7.400;2022-08-03T05:02:56;98692.50;;;17.65;85.17
68948;BME280;55996;49.546;7.400;2022-08-03T05:05:22;98696.97;;;17.79;85.74
68948;BME280;55996;49.546;7.400;2022-08-03T05:07:48;98692.44;;;17.95;84.68
68948;BME280;55996;49.546;7.400;2022-08-03T05:10:14;98692.84;;;18.16;84.38
68948;BME280;55996;49.546;7.400;2022-08-03T05:12:39;98656.84;;;18.14;83.13
68948;BME280;55996;49.546;7.400;2022-08-03T05:15:06;98697.22;;;18.45;81.62
68948;BME280;55996;49.546;7.400;2022-08-03T05:17:31;98696.72;;;18.65;81.15
68948;BME280;55996;49.546;7.400;2022-08-03T05:20:01;98691.38;;;18.80;80.59
68948;BME280;55996;49.546;7.400;2022-08-03T05:22:28;98698.94;;;18.99;79.42
68948;BME280;55996;49.546;7.400;2022-08-03T05:24:53;98703.41;;;18.98;78.05
68948;BME280;55996;49.546;7.400;2022-08-03T05:27:18;98699.28;;;19.07;78.02
68948;BME280;55996;49.546;7.400;2022-08-03T05:29:48;98695.69;;;19.21;76.79
68948;BME280;55996;49.546;7.400;2022-08-03T05:32:14;98688.03;;;19.42;76.66
68948;BME280;55996;49.546;7.400;2022-08-03T05:34:40;98701.31;;;19.55;75.11
68948;BME280;55996;49.546;7.400;2022-08-03T05:37:05;98691.09;;;19.75;74.90
68948;BME280;55996;49.546;7.400;2022-08-03T05:39:34;98692.25;;;19.96;73.79
68948;BME280;55996;49.546;7.400;2022-08-03T05:42:00;98686.44;;;20.15;73.45
68948;BME280;55996;49.546;7.400;2022-08-03T05:44:25;98681.91;;;20.42;72.28
68948;BME280;55996;49.546;7.400;2022-08-03T05:46:51;98684.59;;;20.77;71.10
68948;BME280;55996;49.546;7.400;2022-08-03T05:49:17;98690.84;;;21.23;69.11
68948;BME280;55996;49.546;7.400;2022-08-03T05:51:43;98682.81;;;21.59;66.63
68948;BME280;55996;49.546;7.400;2022-08-03T05:54:08;98680.22;;;22.03;64.98
68948;BME280;55996;49.546;7.400;2022-08-03T05:56:34;98675.50;;;22.62;67.08
68948;BME280;55996;49.546;7.400;2022-08-03T05:58:59;98662.06;;;23.05;64.57
68948;BME280;55996;49.546;7.400;2022-08-03T06:01:24;98684.22;;;23.48;60.08
68948;BME280;55996;49.546;7.400;2022-08-03T06:03:50;98674.81;;;23.85;55.97
68948;BME280;55996;49.546;7.400;2022-08-03T06:06:16;98667.88;;;24.13;53.58
68948;BME280;55996;49.546;7.400;2022-08-03T06:08:43;98668.06;;;24.41;50.80
68948;BME280;55996;49.546;7.400;2022-08-03T06:11:08;98671.28;;;24.64;49.30
68948;BME280;55996;49.546;7.400;2022-08-03T06:13:34;98667.50;;;24.87;46.45
68948;BME280;55996;49.546;7.400;2022-08-03T06:16:00;98665.78;;;25.05;46.43
68948;BME280;55996;49.546;7.400;2022-08-03T06:18:26;98662.50;;;25.21;46.07
68948;BME280;55996;49.546;7.400;2022-08-03T06:20:52;98657.97;;;25.41;44.38
68948;BME280;55996;49.546;7.400;2022-08-03T06:23:18;98662.13;;;25.54;45.54
68948;BME280;55996;49.546;7.400;2022-08-03T06:25:43;98658.59;;;25.63;43.30
68948;BME280;55996;49.546;7.400;2022-08-03T06:28:08;98657.03;;;25.70;42.22
68948;BME280;55996;49.546;7.400;2022-08-03T06:30:34;98664.47;;;25.76;44.85
68948;BME280;55996;49.546;7.400;2022-08-03T06:33:00;98658.94;;;25.78;44.41
68948;BME280;55996;49.546;7.400;2022-08-03T06:35:26;98658.59;;;25.63;45.82
68948;BME280;55996;49.546;7.400;2022-08-03T06:37:52;98659.59;;;25.62;44.49
68948;BME280;55996;49.546;7.400;2022-08-03T06:40:20;98658.47;;;25.55;44.83
68948;BME280;55996;49.546;7.400;2022-08-03T06:42:53;98651.47;;;25.44;44.00
68948;BME280;55996;49.546;7.400;2022-08-03T06:45:18;98651.34;;;25.36;42.65
68948;BME280;55996;49.546;7.400;2022-08-03T06:47:44;98654.88;;;25.26;42.14
68948;BME280;55996;49.546;7.400;2022-08-03T06:50:09;98650.69;;;25.14;41.92
68948;BME280;55996;49.546;7.400;2022-08-03T06:52:35;98663.69;;;24.99;47.06
68948;BME280;55996;49.546;7.400;2022-08-03T06:55:00;98657.09;;;24.84;45.60
68948;BME280;55996;49.546;7.400;2022-08-03T06:57:26;98663.03;;;24.68;48.06
68948;BME280;55996;49.546;7.400;2022-08-03T06:59:51;98664.41;;;24.42;47.82
68948;BME280;55996;49.546;7.400;2022-08-03T07:02:17;98668.19;;;24.20;46.29
68948;BME280;55996;49.546;7.400;2022-08-03T07:04:46;98673.63;;;23.99;45.30
68948;BME280;55996;49.546;7.400;2022-08-03T07:07:12;98663.53;;;23.81;46.46
68948;BME280;55996;49.546;7.400;2022-08-03T07:09:38;98668.84;;;23.62;44.54
68948;BME280;55996;49.546;7.400;2022-08-03T07:12:03;98672.88;;;23.56;44.58
68948;BME280;55996;49.546;7.400;2022-08-03T07:14:30;98675.41;;;23.58;46.90
68948;BME280;55996;49.546;7.400;2022-08-03T07:16:56;98676.91;;;23.50;42.77
68948;BME280;55996;49.546;7.400;2022-08-03T07:19:21;98676.81;;;23.52;47.49
68948;BME280;55996;49.546;7.400;2022-08-03T07:21:46;98679.03;;;23.47;45.41
68948;BME280;55996;49.546;7.400;2022-08-03T07:24:12;98670.69;;;23.40;42.98
68948;BME280;55996;49.546;7.400;2022-08-03T07:26:37;98668.31;;;23.37;46.14
68948;BME280;55996;49.546;7.400;2022-08-03T07:29:02;98677.00;;;23.39;44.13
68948;BME280;55996;49.546;7.400;2022-08-03T07:31:28;98690.19;;;23.62;56.32
68948;BME280;55996;49.546;7.400;2022-08-03T07:33:53;98676.03;;;23.71;52.93
68948;BME280;55996;49.546;7.400;2022-08-03T07:36:18;98679.84;;;23.78;52.18
68948;BME280;55996;49.546;7.400;2022-08-03T07:38:44;98669.75;;;23.82;52.33
68948;BME280;55996;49.546;7.400;2022-08-03T07:41:09;98675.03;;;24.03;54.85
68948;BME280;55996;49.546;7.400;2022-08-03T07:43:35;98670.66;;;24.02;53.79
68948;BME280;55996;49.546;7.400;2022-08-03T07:46:00;98673.53;;;24.20;54.35
68948;BME280;55996;49.546;7.400;2022-08-03T07:48:25;98671.84;;;24.29;54.26
68948;BME280;55996;49.546;7.400;2022-08-03T07:50:51;98676.63;;;24.35;54.06
68948;BME280;55996;49.546;7.400;2022-08-03T07:53:17;98663.44;;;24.73;53.72
68948;BME280;55996;49.546;7.400;2022-08-03T07:55:42;98663.97;;;28.21;43.18
68948;BME280;55996;49.546;7.400;2022-08-03T07:58:11;98645.06;;;32.29;34.30
68948;BME280;55996;49.546;7.400;2022-08-03T08:00:40;98647.81;;;35.67;29.27
68948;BME280;55996;49.546;7.400;2022-08-03T08:03:06;98634.50;;;35.25;30.64
68948;BME280;55996;49.546;7.400;2022-08-03T08:05:32;98642.19;;;33.66;33.34
68948;BME280;55996;49.546;7.400;2022-08-03T08:07:58;98638.00;;;36.75;26.93
68948;BME280;55996;49.546;7.400;2022-08-03T08:10:23;98630.16;;;38.34;24.60
68948;BME280;55996;49.546;7.400;2022-08-03T08:12:49;98624.53;;;39.66;23.44
68948;BME280;55996;49.546;7.400;2022-08-03T08:15:14;98632.63;;;40.48;22.60
68948;BME280;55996;49.546;7.400;2022-08-03T08:20:15;98628.72;;;37.27;27.40
68948;BME280;55996;49.546;7.400;2022-08-03T08:22:41;98625.38;;;38.84;24.12
68948;BME280;55996;49.546;7.400;2022-08-03T08:25:06;98622.72;;;40.30;22.34
68948;BME280;55996;49.546;7.400;2022-08-03T08:27:32;98622.28;;;41.01;21.92
68948;BME280;55996;49.546;7.400;2022-08-03T08:29:57;98617.78;;;41.34;20.96
68948;BME280;55996;49.546;7.400;2022-08-03T08:32:23;98624.59;;;41.49;20.63
68948;BME280;55996;49.546;7.400;2022-08-03T08:34:48;98617.00;;;41.78;20.41
68948;BME280;55996;49.546;7.400;2022-08-03T08:37:13;98619.50;;;41.57;20.16
68948;BME280;55996;49.546;7.400;2022-08-03T08:39:39;98619.19;;;40.63;20.92
68948;BME280;55996;49.546;7.400;2022-08-03T08:42:04;98617.41;;;41.25;20.77
68948;BME280;55996;49.546;7.400;2022-08-03T08:44:30;98621.38;;;41.35;19.95
68948;BME280;55996;49.546;7.400;2022-08-03T08:46:55;98617.34;;;41.20;20.17
68948;BME280;55996;49.546;7.400;2022-08-03T08:49:22;98619.53;;;41.01;20.15
68948;BME280;55996;49.546;7.400;2022-08-03T08:51:52;98618.16;;;40.53;20.28
68948;BME280;55996;49.546;7.400;2022-08-03T08:54:20;98617.53;;;40.79;20.09
68948;BME280;55996;49.546;7.400;2022-08-03T08:56:48;98614.97;;;41.90;19.47
68948;BME280;55996;49.546;7.400;2022-08-03T08:59:14;98620.56;;;41.56;19.88
68948;BME280;55996;49.546;7.400;2022-08-03T09:01:40;98616.25;;;40.36;21.50
68948;BME280;55996;49.546;7.400;2022-08-03T09:04:06;98616.72;;;38.75;22.98
68948;BME280;55996;49.546;7.400;2022-08-03T09:06:31;98629.16;;;36.80;24.71
68948;BME280;55996;49.546;7.400;2022-08-03T09:08:57;98626.44;;;35.70;26.55
68948;BME280;55996;49.546;7.400;2022-08-03T09:11:22;98622.84;;;35.11;28.14
68948;BME280;55996;49.546;7.400;2022-08-03T09:13:48;98632.44;;;34.67;27.73
68948;BME280;55996;49.546;7.400;2022-08-03T09:16:19;98630.59;;;34.81;28.87
68948;BME280;55996;49.546;7.400;2022-08-03T09:18:47;98626.59;;;35.17;28.61
68948;BME280;55996;49.546;7.400;2022-08-03T09:21:27;98623.56;;;35.59;27.45
68948;BME280;55996;49.546;7.400;2022-08-03T09:23:56;98623.19;;;36.39;26.95
68948;BME280;55996;49.546;7.400;2022-08-03T09:26:24;98618.25;;;37.24;25.52
68948;BME280;55996;49.546;7.400;2022-08-03T09:31:38;98615.25;;;38.61;24.98
68948;BME280;55996;49.546;7.400;2022-08-03T09:34:08;98618.03;;;39.20;24.61
68948;BME280;55996;49.546;7.400;2022-08-03T09:39:05;98613.41;;;39.85;21.77
68948;BME280;55996;49.546;7.400;2022-08-03T09:41:32;98606.03;;;40.14;21.83
68948;BME280;55996;49.546;7.400;2022-08-03T09:43:57;98596.16;;;40.01;21.79
68948;BME280;55996;49.546;7.400;2022-08-03T09:46:23;98591.53;;;40.02;21.47
68948;BME280;55996;49.546;7.400;2022-08-03T09:48:48;98589.44;;;40.38;22.16
68948;BME280;55996;49.546;7.400;2022-08-03T09:51:14;98586.75;;;40.55;22.69
68948;BME280;55996;49.546;7.400;2022-08-03T09:53:45;98583.47;;;40.24;21.83
68948;BME280;55996;49.546;7.400;2022-08-03T09:56:12;98589.47;;;39.80;21.40
68948;BME280;55996;49.546;7.400;2022-08-03T09:58:45;98582.59;;;39.13;21.72
68948;BME280;55996;49.546;7.400;2022-08-03T10:01:12;98591.63;;;39.26;21.59
68948;BME280;55996;49.546;7.400;2022-08-03T10:03:39;98587.06;;;39.43;21.88
68948;BME280;55996;49.546;7.400;2022-08-03T10:06:18;98581.94;;;39.59;21.59
68948;BME280;55996;49.546;7.400;2022-08-03T10:08:45;98578.78;;;39.02;22.37
68948;BME280;55996;49.546;7.400;2022-08-03T10:11:11;98576.88;;;39.15;22.48
68948;BME280;55996;49.546;7.400;2022-08-03T10:13:37;98577.03;;;38.96;22.58
68948;BME280;55996;49.546;7.400;2022-08-03T10:16:02;98581.81;;;38.89;22.10
68948;BME280;55996;49.546;7.400;2022-08-03T10:18:29;98570.25;;;38.87;21.85
68948;BME280;55996;49.546;7.400;2022-08-03T10:21:02;98570.81;;;39.25;21.77
68948;BME280;55996;49.546;7.400;2022-08-03T10:23:28;98559.63;;;39.38;23.60
68948;BME280;55996;49.546;7.400;2022-08-03T10:26:01;98560.38;;;39.21;23.10
68948;BME280;55996;49.546;7.400;2022-08-03T10:28:36;98559.31;;;38.99;23.78
68948;BME280;55996;49.546;7.400;2022-08-03T10:31:04;98550.13;;;38.34;24.57
68948;BME280;55996;49.546;7.400;2022-08-03T10:33:35;98547.88;;;37.70;25.46
68948;BME280;55996;49.546;7.400;2022-08-03T10:36:04;98550.97;;;36.62;26.65
68948;BME280;55996;49.546;7.400;2022-08-03T10:38:42;98555.97;;;35.62;27.33
68948;BME280;55996;49.546;7.400;2022-08-03T10:41:11;98552.88;;;34.66;27.90
68948;BME280;55996;49.546;7.400;2022-08-03T10:43:50;98556.13;;;34.01;28.57
68948;BME280;55996;49.546;7.400;2022-08-03T10:46:18;98548.69;;;33.55;28.60
68948;BME280;55996;49.546;7.400;2022-08-03T10:48:46;98552.22;;;33.49;30.90
68948;BME280;55996;49.546;7.400;2022-08-03T10:51:13;98540.56;;;37.33;25.97
68948;BME280;55996;49.546;7.400;2022-08-03T10:53:40;98533.31;;;40.24;23.32
68948;BME280;55996;49.546;7.400;2022-08-03T11:02:11;98530.75;;;41.52;24.68
68948;BME280;55996;49.546;7.400;2022-08-03T11:04:38;98529.69;;;41.53;24.97
68948;BME280;55996;49.546;7.400;2022-08-03T11:09:45;98531.03;;;38.46;29.05
68948;BME280;55996;49.546;7.400;2022-08-03T11:12:31;98517.19;;;40.78;22.16
68948;BME280;55996;49.546;7.400;2022-08-03T11:15:05;98512.44;;;41.85;23.91
68948;BME280;55996;49.546;7.400;2022-08-03T11:17:33;98521.97;;;41.77;23.88
68948;BME280;55996;49.546;7.400;2022-08-03T11:19:58;98515.41;;;40.16;21.07
68948;BME280;55996;49.546;7.400;2022-08-03T11:22:24;98511.91;;;38.34;21.70
68948;BME280;55996;49.546;7.400;2022-08-03T11:27:26;98513.91;;;35.65;26.34
68948;BME280;55996;49.546;7.400;2022-08-03T11:30:37;98512.13;;;34.80;27.75
68948;BME280;55996;49.546;7.400;2022-08-03T11:32:57;98520.03;;;33.87;40.55
68948;BME280;55996;49.546;7.400;2022-08-03T11:40:45;98516.53;;;33.38;30.43
68948;BME280;55996;49.546;7.400;2022-08-03T11:46:03;98503.78;;;34.74;30.48
68948;BME280;55996;49.546;7.400;2022-08-03T11:48:37;98501.22;;;38.44;25.64
68948;BME280;55996;49.546;7.400;2022-08-03T11:51:05;98501.44;;;40.91;21.97
68948;BME280;55996;49.546;7.400;2022-08-03T11:53:31;98492.63;;;41.83;24.04
68948;BME280;55996;49.546;7.400;2022-08-03T11:55:58;98493.03;;;42.24;24.04
68948;BME280;55996;49.546;7.400;2022-08-03T11:58:25;98490.09;;;42.03;23.94
68948;BME280;55996;49.546;7.400;2022-08-03T12:00:51;98489.56;;;42.06;25.20
68948;BME280;55996;49.546;7.400;2022-08-03T12:03:18;98489.66;;;41.84;25.18
68948;BME280;55996;49.546;7.400;2022-08-03T12:05:52;98480.44;;;41.68;24.84
68948;BME280;55996;49.546;7.400;2022-08-03T12:10:56;98482.88;;;41.92;24.75
68948;BME280;55996;49.546;7.400;2022-08-03T12:13:22;98485.09;;;41.18;25.05
68948;BME280;55996;49.546;7.400;2022-08-03T12:15:55;98477.53;;;41.53;25.21
68948;BME280;55996;49.546;7.400;2022-08-03T12:18:21;98475.09;;;41.56;24.26
68948;BME280;55996;49.546;7.400;2022-08-03T12:20:49;98466.84;;;41.84;24.58
68948;BME280;55996;49.546;7.400;2022-08-03T12:23:15;98469.00;;;42.09;24.50
68948;BME280;55996;49.546;7.400;2022-08-03T12:25:42;98474.50;;;42.09;24.13
68948;BME280;55996;49.546;7.400;2022-08-03T12:30:38;98471.47;;;42.05;24.53
68948;BME280;55996;49.546;7.400;2022-08-03T12:36:09;98461.31;;;41.02;20.71
68948;BME280;55996;49.546;7.400;2022-08-03T12:38:35;98465.72;;;39.32;22.26
68948;BME280;55996;49.546;7.400;2022-08-03T12:41:06;98461.97;;;40.53;21.19
68948;BME280;55996;49.546;7.400;2022-08-03T12:43:33;98456.19;;;41.87;19.91
68948;BME280;55996;49.546;7.400;2022-08-03T12:46:13;98450.06;;;43.09;18.72
68948;BME280;55996;49.546;7.400;2022-08-03T12:49:02;98450.28;;;43.96;17.70
68948;BME280;55996;49.546;7.400;2022-08-03T12:51:29;98455.47;;;44.44;17.21
68948;BME280;55996;49.546;7.400;2022-08-03T12:53:56;98451.25;;;44.73;17.68
68948;BME280;55996;49.546;7.400;2022-08-03T12:56:23;98450.44;;;44.67;17.10
68948;BME280;55996;49.546;7.400;2022-08-03T12:58:48;98452.00;;;44.94;16.66
68948;BME280;55996;49.546;7.400;2022-08-03T13:01:18;98449.59;;;44.72;17.36
68948;BME280;55996;49.546;7.400;2022-08-03T13:03:49;98452.34;;;44.72;17.54
68948;BME280;55996;49.546;7.400;2022-08-03T13:06:23;98452.72;;;44.39;16.45
68948;BME280;55996;49.546;7.400;2022-08-03T13:09:00;98446.41;;;43.72;17.46
68948;BME280;55996;49.546;7.400;2022-08-03T13:11:26;98441.47;;;43.94;17.33
68948;BME280;55996;49.546;7.400;2022-08-03T13:13:53;98446.91;;;44.30;17.36
68948;BME280;55996;49.546;7.400;2022-08-03T13:16:20;98440.75;;;44.80;16.93
68948;BME280;55996;49.546;7.400;2022-08-03T13:18:50;98440.75;;;44.85;16.61
68948;BME280;55996;49.546;7.400;2022-08-03T13:21:18;98435.28;;;44.59;16.32
68948;BME280;55996;49.546;7.400;2022-08-03T13:23:45;98429.47;;;44.71;16.97
68948;BME280;55996;49.546;7.400;2022-08-03T13:26:11;98431.94;;;44.78;16.46
68948;BME280;55996;49.546;7.400;2022-08-03T13:28:39;98417.41;;;44.46;16.44
68948;BME280;55996;49.546;7.400;2022-08-03T13:31:05;98418.84;;;44.13;17.29
68948;BME280;55996;49.546;7.400;2022-08-03T13:33:31;98417.16;;;44.38;16.59
68948;BME280;55996;49.546;7.400;2022-08-03T13:35:57;98412.81;;;44.06;16.98
68948;BME280;55996;49.546;7.400;2022-08-03T13:38:22;98417.97;;;43.40;17.05
68948;BME280;55996;49.546;7.400;2022-08-03T13:40:50;98407.00;;;44.07;16.94
68948;BME280;55996;49.546;7.400;2022-08-03T13:43:16;98402.31;;;43.97;16.70
68948;BME280;55996;49.546;7.400;2022-08-03T13:45:42;98403.72;;;44.05;17.27
68948;BME280;55996;49.546;7.400;2022-08-03T13:48:07;98404.00;;;43.83;17.32
68948;BME280;55996;49.546;7.400;2022-08-03T13:50:33;98392.97;;;43.57;17.58
68948;BME280;55996;49.546;7.400;2022-08-03T13:52:58;98393.53;;;43.90;16.96